createdAt,value
2022-12-14T00:01:42.298Z,36.72
2022-12-14T00:04:15.161Z,32.35
2022-12-14T00:06:43.623Z,30.52
2022-12-14T00:09:10.133Z,33.22
2022-12-14T00:11:36.856Z,33.50
2022-12-14T00:14:06.497Z,32.35
2022-12-14T00:16:34.322Z,32.75
2022-12-14T00:19:02.210Z,34.95
2022-12-14T00:21:30.673Z,37.25
2022-12-14T00:24:00.110Z,35.85
2022-12-14T00:26:29.190Z,36.92
2022-12-14T00:28:58.371Z,36.88
2022-12-14T00:31:25.693Z,35.00
2022-12-14T00:33:52.722Z,41.10
2022-12-14T00:36:24.133Z,37.80
2022-12-14T00:38:50.649Z,37.50
2022-12-14T00:41:17.132Z,38.13
2022-12-14T00:43:49.867Z,38.47
2022-12-14T00:46:18.938Z,37.92
2022-12-14T00:48:45.767Z,37.78
2022-12-14T00:51:16.431Z,40.10
2022-12-14T00:53:44.738Z,39.30
2022-12-14T00:56:11.863Z,37.70
2022-12-14T00:58:48.680Z,37.70
2022-12-14T01:01:16.062Z,38.78
2022-12-14T01:03:43.130Z,39.00
2022-12-14T01:06:26.148Z,37.70
2022-12-14T01:08:54.349Z,38.25
2022-12-14T01:11:20.825Z,38.08
2022-12-14T01:13:51.962Z,42.13
2022-12-14T01:16:18.676Z,38.92
2022-12-14T01:18:47.126Z,38.58
2022-12-14T01:21:16.448Z,45.20
2022-12-14T01:23:44.477Z,40.72
2022-12-14T01:26:15.115Z,38.75
2022-12-14T01:28:42.275Z,41.15
2022-12-14T01:31:12.662Z,42.30
2022-12-14T01:33:39.489Z,40.95
2022-12-14T01:36:23.079Z,36.83
2022-12-14T01:38:56.880Z,40.03
2022-12-14T01:41:37.056Z,39.10
2022-12-14T01:44:10.075Z,37.45
2022-12-14T01:47:07.419Z,39.13
2022-12-14T01:49:49.832Z,37.55
2022-12-14T01:52:38.363Z,40.85
2022-12-14T01:55:13.123Z,37.47
2022-12-14T01:57:54.912Z,45.60
2022-12-14T02:00:23.727Z,38.97
2022-12-14T02:03:02.695Z,37.45
2022-12-14T02:05:32.031Z,42.05
2022-12-14T02:07:59.023Z,39.72
2022-12-14T02:10:31.765Z,42.75
2022-12-14T02:13:04.466Z,37.25
2022-12-14T02:15:32.429Z,39.17
2022-12-14T02:18:03.248Z,40.70
2022-12-14T02:20:41.241Z,40.92
2022-12-14T02:23:23.245Z,38.75
2022-12-14T02:26:18.273Z,40.63
2022-12-14T02:29:18.406Z,40.65
2022-12-14T02:31:58.579Z,39.13
2022-12-14T02:35:08.542Z,41.05
2022-12-14T02:37:45.473Z,41.30
2022-12-14T02:40:46.751Z,43.70
2022-12-14T02:43:27.787Z,42.45
2022-12-14T02:46:15.570Z,43.78
2022-12-14T02:48:54.752Z,42.17
2022-12-14T02:51:42.159Z,43.00
2022-12-14T02:54:20.424Z,40.25
2022-12-14T02:56:54.071Z,40.90
2022-12-14T02:59:24.347Z,42.33
2022-12-14T03:01:52.681Z,44.60
2022-12-14T03:04:19.573Z,39.42
2022-12-14T03:06:59.625Z,42.50
2022-12-14T03:09:28.573Z,42.10
2022-12-14T03:12:00.935Z,43.38
2022-12-14T03:14:42.291Z,46.13
2022-12-14T03:17:19.634Z,44.55
2022-12-14T03:19:52.044Z,45.22
2022-12-14T03:22:23.445Z,40.55
2022-12-14T03:24:55.815Z,45.10
2022-12-14T03:27:33.717Z,42.20
2022-12-14T03:30:05.954Z,39.08
2022-12-14T03:32:37.394Z,44.88
2022-12-14T03:35:11.929Z,44.55
2022-12-14T03:37:57.005Z,42.65
2022-12-14T03:40:32.866Z,45.67
2022-12-14T03:43:07.490Z,43.00
2022-12-14T03:45:57.871Z,42.47
2022-12-14T03:48:38.066Z,41.55
2022-12-14T03:51:22.410Z,37.67
2022-12-14T03:54:03.929Z,43.55
2022-12-14T03:56:52.979Z,43.83
2022-12-14T03:59:46.129Z,40.78
2022-12-14T04:02:40.954Z,37.70
2022-12-14T04:05:30.060Z,43.22
2022-12-14T04:08:11.599Z,40.53
2022-12-14T04:11:08.306Z,46.38
2022-12-14T04:14:11.695Z,42.25
2022-12-14T04:17:00.150Z,44.88
2022-12-14T04:19:44.381Z,44.55
2022-12-14T04:22:19.544Z,43.45
2022-12-14T04:25:14.252Z,46.72
2022-12-14T04:27:50.722Z,48.92
2022-12-14T04:30:18.065Z,39.53
2022-12-14T04:32:51.661Z,42.45
2022-12-14T04:35:30.722Z,44.38
2022-12-14T04:38:22.110Z,41.90
2022-12-14T04:40:55.652Z,45.58
2022-12-14T04:43:26.765Z,41.13
2022-12-14T04:46:02.335Z,42.53
2022-12-14T04:48:37.970Z,40.25
2022-12-14T04:53:55.914Z,46.80
2022-12-14T04:56:36.510Z,41.55
2022-12-14T04:59:03.405Z,42.45
2022-12-14T05:01:51.465Z,47.70
2022-12-14T05:04:36.529Z,44.13
2022-12-14T05:07:25.046Z,45.63
2022-12-14T05:10:09.653Z,48.60
2022-12-14T05:13:02.835Z,47.55
2022-12-14T05:15:39.282Z,48.90
2022-12-14T05:18:07.383Z,44.50
2022-12-14T05:20:33.881Z,44.08
2022-12-14T05:23:00.373Z,44.33
2022-12-14T05:25:28.631Z,44.92
2022-12-14T05:27:55.701Z,47.95
2022-12-14T05:30:22.363Z,41.97
2022-12-14T05:32:51.367Z,44.70
2022-12-14T05:35:18.026Z,45.95
2022-12-14T05:37:44.871Z,46.70
2022-12-14T05:40:13.836Z,44.60
2022-12-14T05:42:44.778Z,46.85
2022-12-14T05:45:13.969Z,47.97
2022-12-14T05:47:43.372Z,41.78
2022-12-14T05:50:10.060Z,46.67
2022-12-14T05:52:36.811Z,43.50
2022-12-14T05:55:05.300Z,46.33
2022-12-14T05:57:32.170Z,42.95
2022-12-14T05:59:58.730Z,41.30
2022-12-14T06:02:25.336Z,40.85
2022-12-14T06:04:52.132Z,46.47
2022-12-14T06:07:21.774Z,40.40
2022-12-14T06:09:57.026Z,46.95
2022-12-14T06:12:23.869Z,44.08
2022-12-14T06:14:50.541Z,42.17
2022-12-14T06:17:19.250Z,47.20
2022-12-14T06:19:49.878Z,40.78
2022-12-14T06:22:17.722Z,46.45
2022-12-14T06:24:46.397Z,43.92
2022-12-14T06:27:12.951Z,42.88
2022-12-14T06:29:39.449Z,43.50
2022-12-14T06:32:06.205Z,43.30
2022-12-14T06:34:36.915Z,48.13
2022-12-14T06:37:06.363Z,46.55
2022-12-14T06:39:33.093Z,46.30
2022-12-14T06:41:59.626Z,44.10
2022-12-14T06:44:26.330Z,49.92
2022-12-14T06:46:54.701Z,44.38
2022-12-14T06:49:22.136Z,43.72
2022-12-14T06:51:49.374Z,51.25
2022-12-14T06:54:21.355Z,52.33
2022-12-14T06:56:48.440Z,50.25
2022-12-14T06:59:16.397Z,46.67
2022-12-14T07:01:43.184Z,50.63
2022-12-14T07:04:10.004Z,51.53
2022-12-14T07:06:39.615Z,51.75
2022-12-14T07:09:13.180Z,52.00
2022-12-14T07:11:40.246Z,60.97
2022-12-14T07:14:07.364Z,56.60
2022-12-14T07:16:35.375Z,56.60
2022-12-14T07:19:01.983Z,51.95
2022-12-14T07:21:29.393Z,65.38
2022-12-14T07:23:57.652Z,62.63
2022-12-14T07:26:27.959Z,60.20
2022-12-14T07:28:55.158Z,69.38
2022-12-14T07:31:27.308Z,60.67
2022-12-14T07:33:58.482Z,67.57
2022-12-14T07:36:26.906Z,55.80
2022-12-14T07:38:55.932Z,69.85
2022-12-14T07:41:26.884Z,67.65
2022-12-14T07:43:55.422Z,59.25
2022-12-14T07:46:29.455Z,64.47
2022-12-14T07:48:57.608Z,67.75
2022-12-14T07:51:27.644Z,63.58
2022-12-14T07:53:56.541Z,60.03
2022-12-14T07:56:26.179Z,57.92
2022-12-14T07:58:56.131Z,58.17
2022-12-14T08:01:34.272Z,61.80
2022-12-14T08:04:06.841Z,57.65
2022-12-14T08:06:33.826Z,54.30
2022-12-14T08:09:03.414Z,63.97
2022-12-14T08:11:30.235Z,56.40
2022-12-14T08:14:01.932Z,55.63
2022-12-14T08:16:33.442Z,59.15
2022-12-14T08:19:01.387Z,57.28
2022-12-14T08:21:28.619Z,59.65
2022-12-14T08:24:05.708Z,58.97
2022-12-14T08:26:36.115Z,56.38
2022-12-14T08:29:04.226Z,55.17
2022-12-14T08:31:35.662Z,60.83
2022-12-14T08:34:02.827Z,57.85
2022-12-14T08:36:33.159Z,60.13
2022-12-14T08:39:07.425Z,57.72
2022-12-14T08:41:34.198Z,57.92
2022-12-14T08:44:02.337Z,58.35
2022-12-14T08:46:32.616Z,56.22
2022-12-14T08:48:59.248Z,57.78
2022-12-14T08:51:27.377Z,59.90
2022-12-14T08:54:00.948Z,52.05
2022-12-14T08:56:28.568Z,55.15
2022-12-14T08:58:55.966Z,52.33
2022-12-14T09:01:33.505Z,52.95
2022-12-14T09:04:07.872Z,52.28
2022-12-14T09:06:39.582Z,49.33
2022-12-14T09:09:13.637Z,54.08
2022-12-14T09:11:44.892Z,48.38
2022-12-14T09:14:11.740Z,50.90
2022-12-14T09:16:38.420Z,49.20
2022-12-14T09:19:05.227Z,50.60
2022-12-14T09:21:31.872Z,46.70
2022-12-14T09:23:59.800Z,48.63
2022-12-14T09:26:27.182Z,48.10
2022-12-14T09:28:56.349Z,46.97
2022-12-14T09:31:25.649Z,47.40
2022-12-14T09:33:52.794Z,45.60
2022-12-14T09:36:21.780Z,45.53
2022-12-14T09:38:55.347Z,45.85
2022-12-14T09:41:33.934Z,44.97
2022-12-14T09:47:17.651Z,48.40
2022-12-14T09:49:51.771Z,48.03
2022-12-14T09:52:25.564Z,43.85
2022-12-14T09:54:54.896Z,41.15
2022-12-14T09:57:30.605Z,45.28
2022-12-14T10:02:40.483Z,39.03
2022-12-14T10:05:30.412Z,38.47
2022-12-14T10:08:05.793Z,38.50
2022-12-14T10:11:16.290Z,42.50
2022-12-14T10:14:13.499Z,35.83
2022-12-14T10:17:03.854Z,42.13
2022-12-14T10:19:48.994Z,35.67
2022-12-14T10:22:20.277Z,39.35
2022-12-14T10:24:52.335Z,43.03
2022-12-14T10:27:26.455Z,44.08
2022-12-14T10:30:02.958Z,41.40
2022-12-14T10:32:38.685Z,43.58
2022-12-14T10:37:59.143Z,42.60
2022-12-14T10:40:34.408Z,49.03
2022-12-14T10:45:42.597Z,44.40
2022-12-14T10:48:37.397Z,62.83
2022-12-14T10:51:12.445Z,45.50
2022-12-14T10:53:51.692Z,38.63
2022-12-14T10:56:28.881Z,42.08
2022-12-14T10:59:26.587Z,41.25
2022-12-14T11:02:01.057Z,44.90
2022-12-14T11:04:36.104Z,46.58
2022-12-14T11:07:17.566Z,49.23
2022-12-14T11:09:44.786Z,45.47
2022-12-14T11:12:29.610Z,45.78
2022-12-14T11:15:04.449Z,49.88
2022-12-14T11:17:41.638Z,51.17
2022-12-14T11:20:23.007Z,42.03
2022-12-14T11:23:24.551Z,40.90
2022-12-14T11:25:55.688Z,38.03
2022-12-14T11:28:36.561Z,40.50
2022-12-14T11:31:28.549Z,42.80
2022-12-14T11:33:59.180Z,45.67
2022-12-14T11:36:31.834Z,53.50
2022-12-14T11:39:20.218Z,40.33
2022-12-14T11:41:59.492Z,50.15
2022-12-14T11:44:28.859Z,44.45
2022-12-14T11:47:05.173Z,50.50
2022-12-14T11:49:44.568Z,44.85
2022-12-14T11:52:12.855Z,46.08
2022-12-14T11:55:08.452Z,51.30
2022-12-14T11:57:40.550Z,48.45
2022-12-14T12:00:30.796Z,55.08
2022-12-14T12:03:02.562Z,48.20
2022-12-14T12:05:36.092Z,60.92
2022-12-14T12:08:02.874Z,53.70
2022-12-14T12:10:40.398Z,47.50
2022-12-14T12:13:16.450Z,50.22
2022-12-14T12:15:50.284Z,62.97
2022-12-14T12:18:55.382Z,60.90
2022-12-14T12:21:24.339Z,56.42
2022-12-14T12:24:00.747Z,60.05
2022-12-14T12:27:01.771Z,55.95
2022-12-14T12:29:41.510Z,49.75
2022-12-14T12:32:35.487Z,53.55
2022-12-14T12:35:32.100Z,58.95
2022-12-14T12:40:56.168Z,66.35
2022-12-14T12:43:32.123Z,69.25
2022-12-14T12:46:05.604Z,61.42
2022-12-14T12:48:39.984Z,56.53
2022-12-14T12:51:13.291Z,67.80
2022-12-14T12:53:47.329Z,62.08
2022-12-14T12:56:19.514Z,57.03
2022-12-14T12:58:53.176Z,57.90
2022-12-14T13:01:38.024Z,67.38
2022-12-14T13:04:16.326Z,65.97
2022-12-14T13:06:57.116Z,68.18
2022-12-14T13:09:38.146Z,71.22
2022-12-14T13:12:10.302Z,68.82
2022-12-14T13:14:49.972Z,75.28
2022-12-14T13:17:37.191Z,62.65
2022-12-14T13:20:15.536Z,84.15
2022-12-14T13:22:42.712Z,75.93
2022-12-14T13:25:40.168Z,61.35
2022-12-14T13:28:20.717Z,56.58
2022-12-14T13:31:08.629Z,46.45
2022-12-14T13:34:13.884Z,40.70
2022-12-14T13:36:49.530Z,53.03
2022-12-14T13:39:51.172Z,47.35
2022-12-14T13:42:57.090Z,57.85
2022-12-14T13:45:31.421Z,54.58
2022-12-14T13:48:03.001Z,62.47
2022-12-14T13:50:38.966Z,42.72
2022-12-14T13:53:18.794Z,42.58
2022-12-14T13:55:54.534Z,46.58
2022-12-14T14:01:07.673Z,42.55
2022-12-14T14:03:36.704Z,34.95
2022-12-14T14:06:14.391Z,36.40
2022-12-14T14:08:53.733Z,40.88
2022-12-14T14:11:40.170Z,38.08
2022-12-14T14:14:20.706Z,33.22
2022-12-14T14:16:58.236Z,37.30
2022-12-14T14:19:28.545Z,28.50
2022-12-14T14:22:26.424Z,40.22
2022-12-14T14:25:01.551Z,33.50
2022-12-14T14:27:37.397Z,28.43
2022-12-14T14:30:33.624Z,40.15
2022-12-14T14:33:35.797Z,44.42
2022-12-14T14:35:49.845Z,31.58
2022-12-14T14:38:33.895Z,53.80
2022-12-14T14:41:17.435Z,44.90
2022-12-14T14:43:55.415Z,57.10
2022-12-14T14:46:36.937Z,42.92
2022-12-14T14:49:06.021Z,56.33
2022-12-14T14:51:37.004Z,53.60
2022-12-14T14:55:06.443Z,85.35
2022-12-14T14:57:35.950Z,79.53
2022-12-14T15:00:08.324Z,46.83
2022-12-14T15:02:41.598Z,59.20
2022-12-14T15:08:25.454Z,54.03
2022-12-14T15:10:53.022Z,61.95
2022-12-14T15:13:31.071Z,53.85
2022-12-14T15:15:59.707Z,61.67
2022-12-14T15:18:30.525Z,42.95
2022-12-14T15:21:11.768Z,52.17
2022-12-14T15:23:53.495Z,44.50
2022-12-14T15:26:29.001Z,45.90
2022-12-14T15:28:58.981Z,51.50
2022-12-14T15:31:34.339Z,52.40
2022-12-14T15:34:02.755Z,55.45
2022-12-14T15:36:39.085Z,49.47
2022-12-14T15:39:05.847Z,95.95
2022-12-14T15:41:33.795Z,61.97
2022-12-14T15:44:03.328Z,59.38
2022-12-14T15:46:35.156Z,43.50
2022-12-14T15:49:12.485Z,50.08
2022-12-14T15:51:44.352Z,52.63
2022-12-14T15:54:25.411Z,65.63
2022-12-14T15:56:56.245Z,36.30
2022-12-14T15:59:33.137Z,32.53
2022-12-14T16:02:06.438Z,38.00
2022-12-14T16:04:33.772Z,30.35
2022-12-14T16:07:10.570Z,38.85
2022-12-14T16:09:41.876Z,33.67
2022-12-14T16:12:23.509Z,33.33
2022-12-14T16:14:59.233Z,32.35
2022-12-14T16:20:22.933Z,33.85
2022-12-14T16:23:20.844Z,33.97
2022-12-14T16:25:59.627Z,28.42
2022-12-14T16:28:31.503Z,29.25
2022-12-14T16:31:06.394Z,35.15
2022-12-14T16:33:37.331Z,29.00
2022-12-14T16:36:10.065Z,30.95
2022-12-14T16:38:54.007Z,36.75
2022-12-14T16:41:33.261Z,37.42
2022-12-14T16:44:08.039Z,39.35
2022-12-14T16:46:34.760Z,44.95
2022-12-14T16:49:23.406Z,45.70
2022-12-14T16:52:08.959Z,43.40
2022-12-14T16:54:48.648Z,47.45
2022-12-14T16:57:23.074Z,46.47
2022-12-14T16:59:59.035Z,97.95
2022-12-14T17:02:25.743Z,67.80
2022-12-14T17:04:52.719Z,49.97
2022-12-14T17:07:25.496Z,47.70
2022-12-14T17:09:51.963Z,47.25
2022-12-14T17:12:18.909Z,53.97
2022-12-14T17:14:49.997Z,48.40
2022-12-14T17:17:22.379Z,40.08
2022-12-14T17:19:50.780Z,49.10
2022-12-14T17:22:27.600Z,45.47
2022-12-14T17:24:54.425Z,58.22
2022-12-14T17:27:22.378Z,55.28
2022-12-14T17:29:51.453Z,55.50
2022-12-14T17:32:19.040Z,52.55
2022-12-14T17:34:47.844Z,53.05
2022-12-14T17:37:23.896Z,49.33
2022-12-14T17:39:51.411Z,75.43
2022-12-14T17:42:23.209Z,74.65
2022-12-14T17:44:56.505Z,92.13
2022-12-14T17:47:23.413Z,139.32
2022-12-14T17:49:49.970Z,99.53
2022-12-14T17:52:21.372Z,104.57
2022-12-14T17:54:47.922Z,72.25
2022-12-14T17:57:21.504Z,63.55
2022-12-14T17:59:50.605Z,66.88
2022-12-14T18:02:31.277Z,79.95
2022-12-14T18:04:58.163Z,90.88
2022-12-14T18:07:24.736Z,91.25
2022-12-14T18:09:53.341Z,79.30
2022-12-14T18:12:23.918Z,78.82
2022-12-14T18:14:51.058Z,68.28
2022-12-14T18:17:22.097Z,59.95
2022-12-14T18:19:52.088Z,50.30
2022-12-14T18:22:21.274Z,60.92
2022-12-14T18:24:49.286Z,41.78
2022-12-14T18:27:16.149Z,46.92
2022-12-14T18:29:42.607Z,40.15
2022-12-14T18:32:13.638Z,37.83
2022-12-14T18:34:42.392Z,31.92
2022-12-14T18:37:13.476Z,45.60
2022-12-14T18:39:40.367Z,51.70
2022-12-14T18:42:07.103Z,38.00
2022-12-14T18:44:33.597Z,50.70
2022-12-14T18:47:20.479Z,39.50
2022-12-14T18:49:55.062Z,37.35
2022-12-14T18:52:21.909Z,44.33
2022-12-14T18:54:55.400Z,33.88
2022-12-14T18:57:23.599Z,37.95
2022-12-14T18:59:50.240Z,36.20
2022-12-14T19:02:17.159Z,31.48
2022-12-14T19:04:54.071Z,24.50
2022-12-14T19:07:20.527Z,23.65
2022-12-14T19:09:47.011Z,26.80
2022-12-14T19:12:15.281Z,27.55
2022-12-14T19:14:41.773Z,27.92
2022-12-14T19:17:08.336Z,52.13
2022-12-14T19:19:42.678Z,42.00
2022-12-14T19:22:12.797Z,55.65
2022-12-14T19:24:39.828Z,118.50
2022-12-14T19:27:06.316Z,134.25
2022-12-14T19:29:33.012Z,32.17
2022-12-14T19:32:05.839Z,254.20
2022-12-14T19:34:32.790Z,132.05
2022-12-14T19:36:59.282Z,189.73
2022-12-14T19:39:27.539Z,214.43
2022-12-14T19:41:54.302Z,147.93
2022-12-14T19:44:20.830Z,300.60
2022-12-14T19:46:48.205Z,193.60
2022-12-14T19:49:16.656Z,179.52
2022-12-14T19:51:43.204Z,450.92
2022-12-14T19:54:15.836Z,309.40
2022-12-14T19:56:42.383Z,230.45
2022-12-14T19:59:13.455Z,233.38
2022-12-14T20:01:46.277Z,81.38
2022-12-14T20:04:15.853Z,119.93
2022-12-14T20:06:42.454Z,152.52
2022-12-14T20:09:09.032Z,84.88
2022-12-14T20:11:37.802Z,71.53
2022-12-14T20:14:04.428Z,65.78
2022-12-14T20:16:31.115Z,55.40
2022-12-14T20:18:58.088Z,48.38
2022-12-14T20:21:28.348Z,52.88
2022-12-14T20:23:58.146Z,44.53
2022-12-14T20:26:25.626Z,36.05
2022-12-14T20:29:01.605Z,39.25
2022-12-14T20:31:28.876Z,26.02
2022-12-14T20:33:55.698Z,38.40
2022-12-14T20:36:27.410Z,39.38
2022-12-14T20:38:56.050Z,33.83
2022-12-14T20:41:22.805Z,38.45
2022-12-14T20:43:49.561Z,26.73
2022-12-14T20:46:32.030Z,34.90
2022-12-14T20:49:03.304Z,21.88
2022-12-14T20:51:32.274Z,35.55
2022-12-14T20:53:59.476Z,28.60
2022-12-14T20:56:26.412Z,30.48
2022-12-14T20:58:52.978Z,35.80
2022-12-14T21:01:20.822Z,34.90
2022-12-14T21:03:50.481Z,23.58
2022-12-14T21:06:19.657Z,30.02
2022-12-14T21:09:01.556Z,36.05
2022-12-14T21:11:48.285Z,23.42
2022-12-14T21:14:15.496Z,25.05
2022-12-14T21:16:42.768Z,26.73
2022-12-14T21:19:12.272Z,25.33
2022-12-14T21:21:53.214Z,23.95
2022-12-14T21:24:37.620Z,37.63
2022-12-14T21:27:15.014Z,36.22
2022-12-14T21:29:41.493Z,34.60
2022-12-14T21:32:08.263Z,43.00
2022-12-14T21:34:41.402Z,39.65
2022-12-14T21:37:08.406Z,39.83
2022-12-14T21:39:35.176Z,32.75
2022-12-14T21:42:17.433Z,45.65
2022-12-14T21:44:46.594Z,39.72
2022-12-14T21:47:18.939Z,42.92
2022-12-14T21:49:49.753Z,35.70
2022-12-14T21:52:20.131Z,47.00
2022-12-14T21:54:48.893Z,45.35
2022-12-14T21:57:50.047Z,45.80
2022-12-14T22:00:19.810Z,42.28
2022-12-14T22:02:46.565Z,40.35
2022-12-14T22:05:13.333Z,38.53
2022-12-14T22:07:39.905Z,31.35
2022-12-14T22:10:18.691Z,33.30
2022-12-14T22:12:47.866Z,31.95
2022-12-14T22:15:14.816Z,30.48
2022-12-14T22:17:41.309Z,28.95
2022-12-14T22:20:08.543Z,30.05
2022-12-14T22:22:35.060Z,32.08
2022-12-14T22:25:03.489Z,28.48
2022-12-14T22:27:29.992Z,31.73
2022-12-14T22:29:56.562Z,29.60
2022-12-14T22:32:27.356Z,26.30
2022-12-14T22:34:55.537Z,26.50
2022-12-14T22:37:21.999Z,24.08
2022-12-14T22:39:50.193Z,29.05
2022-12-14T22:42:16.873Z,24.77
2022-12-14T22:44:43.449Z,23.83
2022-12-14T22:47:12.421Z,21.23
2022-12-14T22:49:39.177Z,17.65
2022-12-14T22:52:05.673Z,16.55
2022-12-14T22:54:32.850Z,20.55
2022-12-14T22:57:04.099Z,17.52
2022-12-14T22:59:41.991Z,17.02
2022-12-14T23:02:08.854Z,16.17
2022-12-14T23:04:37.322Z,15.38
2022-12-14T23:07:14.558Z,13.70
2022-12-14T23:09:59.788Z,13.77
2022-12-14T23:12:47.593Z,14.30
2022-12-14T23:15:32.961Z,14.38
2022-12-14T23:18:27.379Z,12.35
2022-12-14T23:21:12.842Z,12.38
2022-12-14T23:24:00.087Z,16.02
2022-12-14T23:26:45.469Z,14.07
2022-12-14T23:29:33.357Z,12.77
2022-12-14T23:32:18.500Z,13.98
2022-12-14T23:35:05.416Z,13.48
2022-12-14T23:37:50.273Z,14.52
2022-12-14T23:40:39.586Z,16.42
2022-12-14T23:43:33.430Z,18.40
2022-12-14T23:46:19.332Z,17.60
2022-12-14T23:49:04.608Z,17.88
2022-12-14T23:51:49.745Z,20.93
2022-12-14T23:54:35.445Z,19.48
2022-12-14T23:57:26.166Z,16.27
